Time;durP1;ratioP1;P1;durP2;ratioP2;P2;SDS_P1;SDS_P2;PMS_P1;PMS_P2;Temp;Humidity;BMP_temperature;BMP_pressure;BME280_temperature;BME280_humidity;BME280_pressure;Samples;Min_cycle;Max_cycle;Signal;HPM_P1;HPM_P2
2021/12/12 00:01:27;;;;;;;14.57;7.60;;;4.50;99.90;;;;;;4982775;28;20034;-79
2021/12/12 00:03:56;;;;;;;9.43;6.07;;;4.50;99.90;;;;;;4982591;28;20046;-78
2021/12/12 00:06:31;;;;;;;6.68;6.18;;;4.60;99.90;;;;;;4980916;28;20042;-79
2021/12/12 00:09:08;;;;;;;8.43;6.88;;;4.50;99.90;;;;;;4982430;28;20053;-79
2021/12/12 00:11:35;;;;;;;5.82;5.32;;;4.50;99.90;;;;;;4981002;28;20055;-78
2021/12/12 00:14:06;;;;;;;7.28;6.18;;;4.50;99.90;;;;;;4982726;28;20057;-78
2021/12/12 00:16:32;;;;;;;6.80;6.22;;;4.50;99.90;;;;;;4981622;28;20054;-78
2021/12/12 00:18:58;;;;;;;14.23;7.15;;;4.50;99.90;;;;;;4982355;28;20058;-79
2021/12/12 00:21:25;;;;;;;8.65;7.10;;;4.50;99.90;;;;;;4981810;28;20125;-78
2021/12/12 00:23:53;;;;;;;11.63;6.18;;;4.60;99.90;;;;;;4982815;28;20046;-78
2021/12/12 00:26:18;;;;;;;8.23;7.70;;;4.50;99.90;;;;;;4983090;28;20042;-78
2021/12/12 00:28:44;;;;;;;8.13;7.07;;;4.60;99.90;;;;;;4987670;28;20524;-78
2021/12/12 00:31:14;;;;;;;7.32;6.00;;;4.50;99.90;;;;;;5001495;28;20061;-79
2021/12/12 00:33:42;;;;;;;7.40;6.20;;;4.50;99.90;;;;;;5002379;28;20042;-79
2021/12/12 00:36:09;;;;;;;7.43;6.75;;;4.50;99.90;;;;;;5000579;28;20038;-78
2021/12/12 00:38:35;;;;;;;9.35;7.25;;;4.50;99.90;;;;;;5002253;28;20041;-78
2021/12/12 00:41:07;;;;;;;7.82;7.22;;;4.50;99.90;;;;;;5001917;28;20511;-79
2021/12/12 00:43:37;;;;;;;8.43;7.03;;;4.50;99.90;;;;;;5002068;28;20761;-79
2021/12/12 00:46:07;;;;;;;10.85;8.00;;;4.50;99.90;;;;;;5001313;28;20453;-78
2021/12/12 00:48:34;;;;;;;11.90;8.63;;;4.50;99.90;;;;;;5001528;28;20057;-79
2021/12/12 00:51:03;;;;;;;14.35;9.65;;;4.50;99.90;;;;;;5001017;28;20042;-78
2021/12/12 00:53:30;;;;;;;4.18;3.97;;;4.50;99.90;;;;;;4983876;28;20053;-79
2021/12/12 00:55:56;;;;;;;13.38;9.15;;;4.50;99.90;;;;;;5001634;28;20457;-78
2021/12/12 00:58:24;;;;;;;10.80;7.97;;;4.50;99.90;;;;;;5002003;28;20054;-79
2021/12/12 01:01:04;;;;;;;8.55;7.65;;;4.50;99.90;;;;;;5002011;28;20096;-79
2021/12/12 01:03:36;;;;;;;6.50;5.90;;;4.60;99.90;;;;;;5002187;28;20588;-79
2021/12/12 01:06:04;;;;;;;7.65;5.70;;;4.60;99.90;;;;;;5000360;28;20548;-79
2021/12/12 01:08:30;;;;;;;7.70;7.10;;;4.60;99.90;;;;;;5001284;28;20089;-79
2021/12/12 01:11:01;;;;;;;8.75;7.50;;;4.60;99.90;;;;;;5001072;28;20041;-79
2021/12/12 01:13:27;;;;;;;9.88;7.50;;;4.60;99.90;;;;;;5001891;28;20054;-79
2021/12/12 01:16:01;;;;;;;8.73;6.45;;;4.60;99.90;;;;;;5001132;28;20093;-78
2021/12/12 01:18:30;;;;;;;7.40;6.65;;;4.60;99.90;;;;;;4984311;28;20087;-79
2021/12/12 01:21:03;;;;;;;8.35;6.82;;;4.60;99.90;;;;;;5000491;28;20606;-79
2021/12/12 01:23:41;;;;;;;7.40;5.68;;;4.60;99.90;;;;;;5001350;28;20081;-79
2021/12/12 01:26:08;;;;;;;6.55;6.00;;;4.60;99.90;;;;;;5001075;28;20109;-79
2021/12/12 01:28:36;;;;;;;5.57;5.07;;;4.60;99.90;;;;;;5001937;28;20503;-78
2021/12/12 01:31:08;;;;;;;7.78;6.97;;;4.60;99.90;;;;;;5001261;28;20073;-79
2021/12/12 01:33:36;;;;;;;7.28;6.65;;;4.60;99.90;;;;;;5001465;28;20551;-79
2021/12/12 01:36:07;;;;;;;17.02;7.35;;;4.60;99.90;;;;;;4999972;28;20038;-78
2021/12/12 01:38:58;;;;;;;8.63;7.85;;;4.60;99.90;;;;;;5001688;28;20057;-79
2021/12/12 01:41:50;;;;;;;5.80;5.28;;;4.60;99.90;;;;;;5001599;28;20089;-79
2021/12/12 01:44:26;;;;;;;6.78;5.63;;;4.70;99.90;;;;;;4998522;28;20566;-79
2021/12/12 01:47:05;;;;;;;3.88;3.58;;;4.70;99.90;;;;;;5001494;28;20050;-79
2021/12/12 01:49:33;;;;;;;10.98;7.82;;;4.70;99.90;;;;;;5001646;28;20052;-78
2021/12/12 01:52:00;;;;;;;7.75;6.40;;;4.70;99.90;;;;;;5000168;28;20496;-79
2021/12/12 01:54:31;;;;;;;7.03;6.53;;;4.70;99.90;;;;;;5001114;28;20580;-79
2021/12/12 01:56:59;;;;;;;7.43;6.72;;;4.70;99.90;;;;;;5001505;28;20125;-79
2021/12/12 01:59:30;;;;;;;14.85;8.45;;;4.70;99.90;;;;;;5004533;28;20485;-79
2021/12/12 02:02:06;;;;;;;9.02;5.63;;;4.70;99.90;;;;;;5004112;28;20061;-79
2021/12/12 02:04:39;;;;;;;7.07;5.30;;;4.70;99.90;;;;;;5020527;22;20128;-79
2021/12/12 02:07:07;;;;;;;10.43;5.57;;;4.70;99.90;;;;;;5023623;28;20045;-79
2021/12/12 02:09:34;;;;;;;7.30;5.45;;;4.70;99.90;;;;;;5006757;28;20455;-79
2021/12/12 02:12:00;;;;;;;6.40;5.82;;;4.70;99.90;;;;;;5023926;28;20534;-79
2021/12/12 02:14:28;;;;;;;6.43;5.85;;;4.80;99.90;;;;;;5024636;28;20045;-79
2021/12/12 02:17:00;;;;;;;15.45;5.78;;;4.70;99.90;;;;;;5024225;28;20049;-79
2021/12/12 02:19:35;;;;;;;7.05;5.90;;;4.80;99.90;;;;;;5006733;28;20049;-79
2021/12/12 02:22:17;;;;;;;8.10;4.80;;;4.80;99.90;;;;;;5023261;28;20102;-79
2021/12/12 02:35:45;;;;;;;5.88;5.38;;;4.80;99.90;;;;;;5023294;28;20065;-79
2021/12/12 02:38:15;;;;;;;6.30;5.68;;;4.90;99.90;;;;;;5023703;28;20385;-79
2021/12/12 02:40:44;;;;;;;8.50;5.00;;;4.90;99.90;;;;;;5023894;28;20576;-79
2021/12/12 02:43:13;;;;;;;27.67;4.85;;;4.90;99.90;;;;;;5023234;28;20037;-79
2021/12/12 02:45:39;;;;;;;5.80;5.30;;;4.90;99.90;;;;;;5005925;28;20049;-79
2021/12/12 02:48:07;;;;;;;5.32;4.85;;;4.90;99.90;;;;;;5023407;28;20096;-79
2021/12/12 02:50:40;;;;;;;4.93;4.47;;;5.00;99.90;;;;;;5022918;28;20085;-79
2021/12/12 02:53:18;;;;;;;4.05;3.75;;;5.00;99.90;;;;;;5023283;28;20450;-79
2021/12/12 02:55:47;;;;;;;6.13;3.70;;;5.00;99.90;;;;;;5023282;28;20041;-79
2021/12/12 02:58:20;;;;;;;6.72;5.55;;;5.00;99.90;;;;;;5005485;28;20060;-79
2021/12/12 03:00:55;;;;;;;4.15;3.78;;;5.00;99.90;;;;;;5006503;28;20049;-79
2021/12/12 03:03:21;;;;;;;10.73;6.18;;;5.00;99.90;;;;;;5023047;28;20668;-78
2021/12/12 03:05:47;;;;;;;4.72;3.83;;;5.00;99.90;;;;;;5004975;28;20053;-79
2021/12/12 03:08:15;;;;;;;5.70;3.97;;;5.00;99.90;;;;;;5021795;28;20064;-79
2021/12/12 03:10:44;;;;;;;4.25;3.95;;;5.10;99.90;;;;;;5023423;28;20080;-79
2021/12/12 03:13:10;;;;;;;8.00;5.30;;;5.10;99.90;;;;;;5022963;28;20056;-79
2021/12/12 03:15:39;;;;;;;4.28;3.63;;;5.10;99.90;;;;;;5022909;28;20046;-79
2021/12/12 03:18:08;;;;;;;4.28;3.97;;;5.10;99.90;;;;;;5022846;28;20055;-79
2021/12/12 03:20:40;;;;;;;4.78;3.40;;;5.10;99.90;;;;;;5022013;28;20049;-79
2021/12/12 03:23:23;;;;;;;9.43;3.85;;;5.10;99.90;;;;;;5023049;28;20049;-79
2021/12/12 03:25:53;;;;;;;4.00;3.70;;;5.10;99.90;;;;;;5023339;28;20037;-79
2021/12/12 03:28:22;;;;;;;5.45;4.25;;;5.20;99.90;;;;;;5004248;28;20522;-79
2021/12/12 03:30:52;;;;;;;4.70;4.18;;;5.20;99.90;;;;;;4986197;28;20030;-79
2021/12/12 03:33:19;;;;;;;4.88;4.50;;;5.20;99.90;;;;;;5003426;28;20320;-79
2021/12/12 03:35:50;;;;;;;3.75;3.45;;;5.20;99.90;;;;;;5002137;28;20042;-79
2021/12/12 03:38:17;;;;;;;5.65;4.68;;;5.20;99.90;;;;;;5003573;28;20080;-79
2021/12/12 03:40:44;;;;;;;5.22;3.72;;;5.20;99.90;;;;;;5002783;28;20042;-79
2021/12/12 03:43:14;;;;;;;3.53;3.28;;;5.20;99.90;;;;;;4985249;28;20285;-79
2021/12/12 03:45:42;;;;;;;4.07;3.60;;;5.20;99.90;;;;;;4985053;28;20042;-79
2021/12/12 03:48:16;;;;;;;7.57;3.90;;;5.30;99.90;;;;;;4985409;28;20369;-79
2021/12/12 03:50:45;;;;;;;8.23;4.50;;;5.30;99.90;;;;;;5002485;28;20041;-79
2021/12/12 03:53:11;;;;;;;4.00;3.67;;;5.30;99.90;;;;;;5002684;28;20064;-79
2021/12/12 03:55:38;;;;;;;2.75;2.47;;;5.30;99.90;;;;;;4985256;28;20041;-79
2021/12/12 03:58:05;;;;;;;3.13;2.92;;;5.30;99.90;;;;;;5002289;28;20046;-79
2021/12/12 04:00:45;;;;;;;3.25;2.95;;;5.30;99.90;;;;;;5002864;28;20050;-79
2021/12/12 04:03:12;;;;;;;5.43;5.03;;;5.30;99.90;;;;;;5002294;28;20553;-79
2021/12/12 04:05:38;;;;;;;8.30;2.97;;;5.30;99.90;;;;;;4984119;28;20096;-79
2021/12/12 04:08:05;;;;;;;3.20;3.00;;;5.40;99.90;;;;;;5001576;28;20069;-79
2021/12/12 04:10:32;;;;;;;6.45;3.65;;;5.40;99.90;;;;;;4985349;28;20040;-79
2021/12/12 04:12:58;;;;;;;4.45;4.13;;;5.40;99.90;;;;;;5002380;28;20111;-79
2021/12/12 04:15:24;;;;;;;5.70;4.65;;;5.40;99.90;;;;;;5002542;28;20038;-79
2021/12/12 04:17:51;;;;;;;4.47;4.05;;;5.40;99.90;;;;;;5002838;28;20175;-79
2021/12/12 04:20:33;;;;;;;3.92;3.55;;;5.40;99.90;;;;;;4983704;28;20050;-79
2021/12/12 04:22:59;;;;;;;3.25;3.05;;;5.40;99.90;;;;;;5002087;28;20049;-79
2021/12/12 04:25:25;;;;;;;4.20;3.80;;;5.40;99.90;;;;;;5001814;28;20069;-79
2021/12/12 04:27:52;;;;;;;5.38;3.90;;;5.50;99.90;;;;;;5001995;28;20329;-79
2021/12/12 04:30:18;;;;;;;5.88;3.33;;;5.50;99.90;;;;;;5019910;28;20085;-79
2021/12/12 04:32:45;;;;;;;12.98;4.03;;;5.50;99.90;;;;;;5021926;28;20056;-79
2021/12/12 04:35:20;;;;;;;3.50;3.20;;;5.50;99.90;;;;;;5020733;28;20100;-79
2021/12/12 04:37:47;;;;;;;5.40;4.90;;;5.50;99.90;;;;;;5004577;28;20049;-79
2021/12/12 04:40:17;;;;;;;4.68;3.80;;;5.50;99.90;;;;;;5021940;28;20040;-79
2021/12/12 04:42:44;;;;;;;3.92;3.67;;;5.50;99.90;;;;;;5021685;28;20045;-79
2021/12/12 04:45:22;;;;;;;4.70;2.72;;;5.50;99.90;;;;;;5003996;28;20056;-79
2021/12/12 04:50:52;;;;;;;2.72;2.53;;;5.60;99.90;;;;;;5021008;28;20107;-79
2021/12/12 04:53:46;;;;;;;3.92;3.63;;;5.60;99.90;;;;;;5004416;28;20064;-79
2021/12/12 04:56:32;;;;;;;5.28;4.20;;;5.50;99.90;;;;;;5021415;28;20053;-79
2021/12/12 04:59:21;;;;;;;6.63;4.93;;;5.60;99.90;;;;;;5021128;28;20056;-80
2021/12/12 05:02:13;;;;;;;4.03;3.72;;;5.60;99.90;;;;;;5004713;28;20050;-79
2021/12/12 05:04:58;;;;;;;4.35;4.05;;;5.60;99.90;;;;;;4992140;28;20563;-79
2021/12/12 05:07:45;;;;;;;3.92;3.58;;;5.60;99.90;;;;;;4987245;28;20807;-79
2021/12/12 05:10:17;;;;;;;2.97;2.50;;;5.60;99.90;;;;;;5021478;28;20084;-79
2021/12/12 05:12:51;;;;;;;3.75;3.45;;;5.60;99.90;;;;;;5021386;28;20488;-79
2021/12/12 05:15:28;;;;;;;4.32;3.13;;;5.60;99.90;;;;;;5004162;28;20045;-79
2021/12/12 05:18:11;;;;;;;3.50;2.72;;;5.60;99.90;;;;;;5021268;28;20095;-79
2021/12/12 05:20:42;;;;;;;9.07;3.60;;;5.60;99.90;;;;;;5020824;28;20045;-79
2021/12/12 05:23:12;;;;;;;3.60;3.30;;;5.60;99.90;;;;;;5021328;28;20434;-79
2021/12/12 05:25:43;;;;;;;4.43;4.00;;;5.70;99.90;;;;;;5021188;28;20034;-79
2021/12/12 05:28:12;;;;;;;3.80;3.45;;;5.60;99.90;;;;;;5020905;28;20072;-80
2021/12/12 05:30:39;;;;;;;3.42;3.15;;;5.60;99.90;;;;;;4984216;28;20045;-79
2021/12/12 05:33:05;;;;;;;2.75;2.30;;;5.60;99.90;;;;;;5004760;28;20092;-79
2021/12/12 05:35:35;;;;;;;3.28;3.08;;;5.60;99.90;;;;;;5004597;28;20046;-79
2021/12/12 05:38:03;;;;;;;4.43;4.05;;;5.60;99.90;;;;;;5005148;28;20492;-79
2021/12/12 05:40:32;;;;;;;3.33;1.58;;;5.60;99.90;;;;;;5005477;28;20408;-80
2021/12/12 05:43:00;;;;;;;4.68;4.28;;;5.60;99.90;;;;;;5005218;28;20256;-79
2021/12/12 05:45:27;;;;;;;3.47;2.10;;;5.60;99.90;;;;;;4987576;28;20061;-79
2021/12/12 05:47:53;;;;;;;3.92;3.60;;;5.70;99.90;;;;;;5003785;28;20053;-79
2021/12/12 05:50:20;;;;;;;4.50;4.18;;;5.70;99.90;;;;;;5004597;28;20042;-79
2021/12/12 05:52:47;;;;;;;3.88;3.55;;;5.70;99.90;;;;;;4988149;28;20050;-79
2021/12/12 05:55:15;;;;;;;3.83;3.60;;;5.70;99.90;;;;;;5005012;28;20046;-79
2021/12/12 05:57:44;;;;;;;6.38;4.13;;;5.70;99.90;;;;;;5005231;28;20502;-79
2021/12/12 06:00:13;;;;;;;3.35;3.05;;;5.70;99.90;;;;;;5004661;28;20093;-79
2021/12/12 06:02:40;;;;;;;3.40;3.20;;;5.70;99.90;;;;;;4987245;28;20042;-79
2021/12/12 06:05:06;;;;;;;4.75;4.45;;;5.70;99.90;;;;;;5003654;28;20053;-79
2021/12/12 06:07:33;;;;;;;3.58;3.25;;;5.70;99.90;;;;;;5004804;28;20053;-79
2021/12/12 06:10:03;;;;;;;3.22;3.03;;;5.70;99.90;;;;;;5004014;28;20056;-79
2021/12/12 06:12:33;;;;;;;4.03;3.63;;;5.80;99.90;;;;;;5004908;28;20042;-79
2021/12/12 06:14:59;;;;;;;2.10;1.98;;;5.70;99.90;;;;;;5004139;28;20077;-79
2021/12/12 06:17:26;;;;;;;4.32;3.88;;;5.70;99.90;;;;;;5005045;28;20038;-79
2021/12/12 06:19:53;;;;;;;4.43;4.13;;;5.80;99.90;;;;;;5003299;28;20087;-79
2021/12/12 06:22:21;;;;;;;3.75;3.45;;;5.80;99.90;;;;;;4987614;28;20041;-79
2021/12/12 06:24:48;;;;;;;5.55;4.15;;;5.80;99.90;;;;;;4987189;28;20052;-79
2021/12/12 06:27:18;;;;;;;4.72;3.50;;;5.80;99.90;;;;;;5003065;28;20124;-79
2021/12/12 06:29:48;;;;;;;3.53;2.83;;;5.80;99.90;;;;;;4999355;28;20041;-79
2021/12/12 06:32:16;;;;;;;3.28;2.40;;;5.80;99.90;;;;;;5005825;28;20049;-79
2021/12/12 06:34:44;;;;;;;7.30;5.20;;;5.80;99.90;;;;;;5023340;28;20041;-79
2021/12/12 06:37:10;;;;;;;4.30;2.70;;;5.90;99.90;;;;;;5023672;28;20085;-79
2021/12/12 06:39:36;;;;;;;9.18;6.15;;;5.90;99.90;;;;;;5006186;28;20468;-79
2021/12/12 06:42:04;;;;;;;3.53;2.70;;;5.90;99.90;;;;;;5023432;28;20487;-79
2021/12/12 06:44:30;;;;;;;4.45;3.65;;;5.90;99.90;;;;;;5023091;28;20465;-79
2021/12/12 06:46:56;;;;;;;13.35;5.95;;;6.00;99.90;;;;;;5023684;28;20077;-80
2021/12/12 06:49:23;;;;;;;5.25;4.75;;;5.90;99.90;;;;;;5022896;28;20124;-79
2021/12/12 06:51:55;;;;;;;4.80;4.40;;;6.00;99.90;;;;;;5024363;28;20037;-79
2021/12/12 06:54:23;;;;;;;4.85;4.45;;;6.00;99.90;;;;;;4989227;28;20076;-80
2021/12/12 06:56:51;;;;;;;5.53;4.78;;;6.00;99.90;;;;;;5006621;28;20449;-79
2021/12/12 06:59:17;;;;;;;5.43;5.07;;;6.00;99.90;;;;;;5005691;28;20053;-79
2021/12/12 07:01:44;;;;;;;2.80;2.60;;;6.00;99.90;;;;;;5005682;28;20115;-79
2021/12/12 07:04:12;;;;;;;6.18;5.50;;;6.00;99.90;;;;;;5021937;28;20521;-79
2021/12/12 07:06:39;;;;;;;5.10;4.65;;;6.10;99.90;;;;;;5023256;28;20125;-79
2021/12/12 07:09:08;;;;;;;4.55;4.15;;;6.10;99.90;;;;;;5005583;28;20091;-80
2021/12/12 07:11:36;;;;;;;5.53;4.80;;;6.10;99.90;;;;;;5022813;28;20134;-77
2021/12/12 07:14:02;;;;;;;7.82;5.57;;;6.10;99.90;;;;;;5022039;28;20068;-77
2021/12/12 07:16:28;;;;;;;6.10;4.88;;;6.10;99.90;;;;;;4992026;28;20137;-78
2021/12/12 07:18:55;;;;;;;5.93;5.53;;;6.10;99.90;;;;;;5010946;28;20125;-77
2021/12/12 07:21:22;;;;;;;8.18;5.32;;;6.10;99.90;;;;;;5009021;28;20077;-77
2021/12/12 07:23:49;;;;;;;11.18;5.07;;;6.10;99.90;;;;;;4990217;28;20057;-77
2021/12/12 07:26:17;;;;;;;6.95;3.80;;;6.10;99.90;;;;;;4986386;28;20112;-78
2021/12/12 07:28:44;;;;;;;6.88;4.70;;;6.10;99.90;;;;;;5007614;28;20627;-77
2021/12/12 07:31:17;;;;;;;4.90;4.53;;;6.10;99.90;;;;;;5004702;28;20057;-77
2021/12/12 07:33:45;;;;;;;8.07;5.07;;;6.10;99.90;;;;;;4993080;28;20100;-78
2021/12/12 07:36:12;;;;;;;3.70;3.33;;;6.10;99.90;;;;;;5019937;28;20253;-78
2021/12/12 07:38:43;;;;;;;4.45;4.05;;;6.20;99.90;;;;;;5022201;28;20049;-80
2021/12/12 07:41:10;;;;;;;11.68;4.78;;;6.20;99.90;;;;;;5021852;28;20121;-80
2021/12/12 07:43:36;;;;;;;3.47;3.25;;;6.20;99.90;;;;;;5021511;28;20407;-80
2021/12/12 07:46:03;;;;;;;6.28;4.80;;;6.20;99.90;;;;;;5012927;28;20064;-77
2021/12/12 07:48:30;;;;;;;5.95;5.40;;;6.20;99.90;;;;;;5004282;28;20085;-78
2021/12/12 07:50:56;;;;;;;5.72;5.22;;;6.20;99.90;;;;;;4985736;28;20547;-78
2021/12/12 07:53:25;;;;;;;4.47;4.13;;;6.20;99.90;;;;;;5014652;28;20057;-77
2021/12/12 07:55:53;;;;;;;6.97;6.38;;;6.20;99.90;;;;;;5015595;28;20038;-77
2021/12/12 07:58:19;;;;;;;5.88;5.47;;;6.20;99.90;;;;;;5007891;28;20042;-77
2021/12/12 08:00:48;;;;;;;8.65;5.80;;;6.20;99.90;;;;;;4990185;28;20212;-78
2021/12/12 08:03:15;;;;;;;5.45;4.78;;;6.30;99.90;;;;;;4988303;28;20500;-78
2021/12/12 08:05:41;;;;;;;6.32;5.90;;;6.30;99.90;;;;;;5016977;28;20517;-77
2021/12/12 08:08:10;;;;;;;4.30;3.65;;;6.30;99.90;;;;;;4995646;28;20061;-78
2021/12/12 08:10:38;;;;;;;5.75;5.00;;;6.30;99.90;;;;;;5011191;28;20046;-78
2021/12/12 08:13:05;;;;;;;6.72;6.05;;;6.30;99.90;;;;;;4993432;28;20050;-78
2021/12/12 08:15:31;;;;;;;5.90;5.28;;;6.30;99.90;;;;;;5007596;28;20096;-78
2021/12/12 08:17:59;;;;;;;4.45;4.15;;;6.30;99.90;;;;;;5006528;28;20049;-78
2021/12/12 08:20:26;;;;;;;5.95;3.53;;;6.30;99.90;;;;;;4988281;28;20088;-78
2021/12/12 08:22:52;;;;;;;5.20;4.78;;;6.40;99.90;;;;;;5017631;28;20041;-78
2021/12/12 08:25:19;;;;;;;3.95;3.45;;;6.40;99.90;;;;;;5002967;28;20060;-78
2021/12/12 08:27:45;;;;;;;9.68;3.78;;;6.40;99.90;;;;;;5013100;28;20037;-78
2021/12/12 08:30:14;;;;;;;5.93;5.35;;;6.40;99.90;;;;;;5008087;28;20169;-77
2021/12/12 08:32:41;;;;;;;9.07;6.80;;;6.40;99.90;;;;;;5004290;28;20073;-79
2021/12/12 08:35:08;;;;;;;4.85;3.90;;;6.40;99.90;;;;;;4984833;28;20602;-79
2021/12/12 08:37:34;;;;;;;6.57;5.90;;;6.40;99.90;;;;;;5004914;28;20046;-78
2021/12/12 08:40:01;;;;;;;5.68;4.82;;;6.50;99.90;;;;;;4982384;28;20092;-91
2021/12/12 08:42:27;;;;;;;5.18;4.78;;;6.40;99.90;;;;;;5007635;28;20060;-89
2021/12/12 08:44:55;;;;;;;6.80;6.20;;;6.50;99.90;;;;;;4977037;28;20562;-88
2021/12/12 08:47:22;;;;;;;6.55;5.97;;;6.50;99.90;;;;;;5036099;28;20085;-91
2021/12/12 08:49:48;;;;;;;6.25;5.72;;;6.50;99.90;;;;;;5035336;28;20097;-96
2021/12/12 08:52:19;;;;;;;7.75;6.93;;;6.50;99.90;;;;;;4984714;28;20416;-96
2021/12/12 08:54:46;;;;;;;6.70;6.10;;;6.50;99.90;;;;;;4985778;28;20720;-90
2021/12/12 08:57:30;;;;;;;8.23;6.90;;;6.50;99.90;;;;;;4998442;28;20484;-91
2021/12/12 08:59:57;;;;;;;7.65;5.22;;;6.60;99.90;;;;;;5002585;28;20045;-90
2021/12/12 09:02:23;;;;;;;4.43;4.10;;;6.60;99.90;;;;;;5011444;28;20042;-86
2021/12/12 09:04:57;;;;;;;6.60;4.00;;;6.60;99.90;;;;;;5003880;28;20054;-84
2021/12/12 09:07:35;;;;;;;7.40;5.13;;;6.60;99.90;;;;;;5002138;28;20057;-81
2021/12/12 09:10:10;;;;;;;8.35;5.22;;;6.60;99.90;;;;;;4984026;28;20167;-88
2021/12/12 09:12:48;;;;;;;4.90;4.10;;;6.60;99.90;;;;;;5032544;28;20095;-96
2021/12/12 09:15:23;;;;;;;6.80;5.38;;;6.70;99.90;;;;;;5010599;28;20120;-86
2021/12/12 09:17:53;;;;;;;7.03;5.93;;;6.60;99.90;;;;;;4996288;28;20058;-82
2021/12/12 09:20:46;;;;;;;6.70;6.10;;;6.70;99.90;;;;;;5014611;28;20092;-87
2021/12/12 09:23:18;;;;;;;6.47;4.55;;;6.70;99.90;;;;;;5008894;28;20092;-96
2021/12/12 09:25:55;;;;;;;5.03;4.60;;;6.70;99.90;;;;;;5005549;28;20087;-86
2021/12/12 09:28:30;;;;;;;10.00;6.13;;;6.70;99.90;;;;;;5017796;28;20461;-85
2021/12/12 09:31:02;;;;;;;7.38;4.45;;;6.70;99.90;;;;;;5023757;28;20042;-96
2021/12/12 09:33:36;;;;;;;8.30;6.32;;;6.70;99.90;;;;;;4984400;28;20049;-93
2021/12/12 09:36:09;;;;;;;4.63;4.20;;;6.80;99.90;;;;;;4983638;28;20395;-92
2021/12/12 09:38:51;;;;;;;12.77;7.45;;;6.80;99.90;;;;;;4977454;28;20135;-88
2021/12/12 09:41:45;;;;;;;8.27;7.10;;;6.80;99.90;;;;;;4988960;28;20066;-92
2021/12/12 09:44:29;;;;;;;14.23;8.82;;;6.80;99.90;;;;;;4979162;28;20283;-96
2021/12/12 09:47:45;;;;;;;6.32;5.80;;;6.80;99.90;;;;;;5021488;28;20045;-96
2021/12/12 09:53:31;;;;;;;7.97;7.32;;;6.90;99.90;;;;;;5017651;28;20093;-93
2021/12/12 09:56:07;;;;;;;5.95;5.13;;;6.90;99.90;;;;;;5031087;28;20065;-96
2021/12/12 09:59:01;;;;;;;9.35;5.60;;;7.00;99.90;;;;;;5023016;28;20489;-84
2021/12/12 10:01:32;;;;;;;6.35;5.85;;;7.00;99.90;;;;;;4998941;28;20045;-84
2021/12/12 10:04:29;;;;;;;9.65;5.60;;;7.00;99.90;;;;;;5005574;28;20069;-84
2021/12/12 10:07:09;;;;;;;7.45;4.82;;;7.00;99.90;;;;;;5009517;28;20076;-85
2021/12/12 10:09:52;;;;;;;4.57;4.28;;;7.10;99.90;;;;;;5014129;28;20037;-93
2021/12/12 10:12:22;;;;;;;3.55;3.35;;;7.10;99.90;;;;;;5011968;28;20052;-91
2021/12/12 10:14:53;;;;;;;5.00;4.50;;;7.10;99.90;;;;;;5017847;28;20092;-94
2021/12/12 10:17:31;;;;;;;5.00;4.60;;;7.10;99.90;;;;;;5010636;28;20073;-87
2021/12/12 10:20:08;;;;;;;9.30;4.95;;;7.20;99.90;;;;;;5003237;28;20045;-91
2021/12/12 10:23:08;;;;;;;4.38;3.55;;;7.20;99.90;;;;;;5019017;28;20045;-94
2021/12/12 10:25:46;;;;;;;3.72;3.42;;;7.20;99.90;;;;;;4991413;28;20052;-91
2021/12/12 10:28:33;;;;;;;5.85;3.75;;;7.20;99.90;;;;;;4973066;28;20164;-92
2021/12/12 10:31:05;;;;;;;4.35;3.58;;;7.20;99.90;;;;;;5016919;28;20060;-88
2021/12/12 10:33:53;;;;;;;4.10;3.85;;;7.30;99.90;;;;;;5016665;28;20053;-88
2021/12/12 10:36:23;;;;;;;5.50;4.10;;;7.20;99.90;;;;;;5020624;28;20392;-93
2021/12/12 10:39:28;;;;;;;3.60;3.33;;;7.30;99.90;;;;;;5034586;28;20090;-96
2021/12/12 10:42:03;;;;;;;2.50;2.35;;;7.30;99.90;;;;;;5006898;28;20117;-95
2021/12/12 10:44:47;;;;;;;6.55;4.53;;;7.40;99.90;;;;;;4987144;28;20038;-85
2021/12/12 10:47:28;;;;;;;1.67;1.55;;;7.40;99.90;;;;;;4985547;28;20573;-87
2021/12/12 10:50:29;;;;;;;4.75;4.25;;;7.40;99.90;;;;;;4982261;28;20499;-89
2021/12/12 10:53:06;;;;;;;3.72;3.17;;;7.50;99.90;;;;;;4966510;28;20068;-88
2021/12/12 10:55:40;;;;;;;3.40;3.20;;;7.50;99.90;;;;;;5013300;28;20038;-88
2021/12/12 10:58:19;;;;;;;4.95;2.50;;;7.50;99.90;;;;;;5006313;28;20187;-86
2021/12/12 11:01:09;;;;;;;1.67;1.58;;;7.60;99.90;;;;;;5007386;28;20053;-87
2021/12/12 11:03:42;;;;;;;2.20;2.10;;;7.60;99.90;;;;;;5002785;28;20144;-87
2021/12/12 11:06:19;;;;;;;2.05;1.95;;;7.60;99.90;;;;;;4985873;28;20485;-89
2021/12/12 11:09:11;;;;;;;4.03;2.75;;;7.70;99.90;;;;;;4988124;28;20041;-96
2021/12/12 11:11:48;;;;;;;3.37;3.07;;;7.70;99.90;;;;;;5000285;28;20540;-85
2021/12/12 11:14:25;;;;;;;4.50;2.42;;;7.70;99.90;;;;;;5003787;28;20125;-84
2021/12/12 11:16:59;;;;;;;1.13;1.10;;;7.70;99.90;;;;;;5000321;28;20053;-91
2021/12/12 11:19:31;;;;;;;2.05;1.95;;;7.70;99.90;;;;;;4970579;28;20049;-83
2021/12/12 11:22:29;;;;;;;2.03;1.70;;;7.70;99.90;;;;;;5021395;28;20124;-86
2021/12/12 11:25:03;;;;;;;2.00;1.30;;;7.80;99.90;;;;;;5011198;28;20100;-88
2021/12/12 11:28:21;;;;;;;1.15;1.15;;;7.80;99.90;;;;;;4986484;28;20041;-83
2021/12/12 11:31:06;;;;;;;1.48;1.15;;;7.80;99.90;;;;;;4974010;28;20057;-82
2021/12/12 11:33:34;;;;;;;1.10;1.02;;;7.90;99.90;;;;;;5002409;28;20116;-83
2021/12/12 11:36:02;;;;;;;1.45;1.35;;;8.00;99.90;;;;;;5018792;28;20431;-86
2021/12/12 11:38:36;;;;;;;2.50;1.52;;;7.90;99.90;;;;;;5022207;28;20060;-86
2021/12/12 11:41:37;;;;;;;0.50;0.50;;;8.00;99.90;;;;;;5024169;28;20053;-86
2021/12/12 11:44:29;;;;;;;1.42;0.93;;;8.10;99.90;;;;;;5004460;28;20546;-86
2021/12/12 11:47:28;;;;;;;1.38;0.52;;;8.10;99.90;;;;;;5023054;28;20444;-87
2021/12/12 11:50:06;;;;;;;1.35;1.15;;;8.10;99.90;;;;;;5013514;28;21324;-82
2021/12/12 11:52:35;;;;;;;1.73;1.63;;;8.20;99.90;;;;;;4998621;28;20045;-80
2021/12/12 11:55:12;;;;;;;1.65;0.57;;;8.20;99.90;;;;;;5003483;28;20102;-79
2021/12/12 11:57:49;;;;;;;1.58;1.50;;;8.20;99.90;;;;;;5019161;28;20514;-79
2021/12/12 12:00:24;;;;;;;0.90;0.90;;;8.30;99.90;;;;;;5002514;28;20052;-80
2021/12/12 12:03:27;;;;;;;0.70;0.70;;;8.30;99.90;;;;;;4997820;28;20053;-79
2021/12/12 12:06:30;;;;;;;1.23;1.13;;;8.40;99.90;;;;;;4990314;28;20054;-78
2021/12/12 12:09:00;;;;;;;0.50;0.45;;;8.40;99.90;;;;;;4992716;28;20107;-82
2021/12/12 12:11:47;;;;;;;0.65;0.65;;;8.40;99.90;;;;;;5019044;28;20033;-86
2021/12/12 12:14:38;;;;;;;0.60;0.60;;;8.40;99.90;;;;;;5002270;28;20049;-81
2021/12/12 12:17:17;;;;;;;0.82;0.82;;;8.40;99.90;;;;;;4976538;28;20037;-84
2021/12/12 12:20:00;;;;;;;0.35;0.35;;;8.50;99.90;;;;;;5009123;28;20404;-87
2021/12/12 12:22:47;;;;;;;0.68;0.63;;;8.50;99.90;;;;;;4987852;28;20131;-86
2021/12/12 12:26:50;;;;;;;2.28;1.30;;;8.50;99.90;;;;;;4995703;28;20572;-83
2021/12/12 12:28:24;;;;;;;1.77;1.63;;;8.60;99.90;;;;;;5009390;28;20045;-87
2021/12/12 12:31:28;;;;;;;0.55;0.47;;;8.60;99.90;;;;;;5011249;28;20056;-84
2021/12/12 12:34:51;;;;;;;1.90;1.40;;;8.60;99.90;;;;;;4994579;28;20084;-85
2021/12/12 12:37:54;;;;;;;0.40;0.38;;;8.60;99.90;;;;;;5014939;28;20046;-78
2021/12/12 12:40:37;;;;;;;0.50;0.50;;;8.60;99.90;;;;;;5012869;28;20068;-77
2021/12/12 12:43:40;;;;;;;0.80;0.80;;;8.60;99.90;;;;;;5010834;28;20044;-76
2021/12/12 12:46:34;;;;;;;0.40;0.40;;;8.60;99.90;;;;;;4995491;28;20054;-76
2021/12/12 12:49:44;;;;;;;1.85;1.60;;;8.60;99.90;;;;;;4985955;28;20655;-76
2021/12/12 12:52:32;;;;;;;0.73;0.73;;;8.70;99.90;;;;;;4988433;28;20107;-76
2021/12/12 12:55:26;;;;;;;1.25;1.25;;;8.70;99.90;;;;;;4988417;28;20137;-77
2021/12/12 12:57:55;;;;;;;1.45;0.90;;;8.70;99.90;;;;;;5003081;28;20104;-77
2021/12/12 13:00:25;;;;;;;0.50;0.50;;;8.80;99.90;;;;;;5006950;28;20073;-75
2021/12/12 13:03:18;;;;;;;0.20;0.20;;;8.80;99.90;;;;;;4987623;28;20105;-77
2021/12/12 13:06:01;;;;;;;0.82;0.82;;;8.80;99.90;;;;;;5009779;28;20219;-76
2021/12/12 13:08:45;;;;;;;0.63;0.43;;;8.80;99.90;;;;;;4985570;28;20515;-78
2021/12/12 13:11:16;;;;;;;1.83;1.00;;;8.80;99.90;;;;;;5003157;28;20436;-75
2021/12/12 13:14:00;;;;;;;3.70;1.33;;;8.80;99.90;;;;;;4991534;28;20080;-76
2021/12/12 13:16:37;;;;;;;1.70;1.33;;;8.90;99.90;;;;;;4989005;28;20211;-76
2021/12/12 13:19:05;;;;;;;1.35;1.27;;;8.90;99.90;;;;;;4984616;28;20065;-75
2021/12/12 13:22:02;;;;;;;0.75;0.75;;;8.90;99.90;;;;;;4988992;28;20111;-75
2021/12/12 13:24:53;;;;;;;1.10;1.05;;;8.90;99.90;;;;;;5014559;28;20474;-75
2021/12/12 13:27:52;;;;;;;0.60;0.60;;;8.90;99.90;;;;;;4985318;28;20052;-75
2021/12/12 13:30:28;;;;;;;1.48;1.25;;;8.90;99.90;;;;;;5002402;28;20412;-75
2021/12/12 13:33:07;;;;;;;0.60;0.60;;;8.90;99.90;;;;;;4998989;28;20484;-77
2021/12/12 13:35:59;;;;;;;0.25;0.17;;;9.00;99.90;;;;;;5009709;28;20034;-78
2021/12/12 13:38:30;;;;;;;;;;;8.90;99.90;;;;;;4993794;28;20052;-78
2021/12/12 13:41:18;;;;;;;2.70;1.58;;;9.00;99.90;;;;;;4996891;28;19922;-77
2021/12/12 13:43:52;;;;;;;3.47;1.90;;;9.00;99.90;;;;;;5004047;28;20038;-77
2021/12/12 13:46:42;;;;;;;1.58;1.23;;;9.00;99.90;;;;;;5001012;28;20055;-77
2021/12/12 13:49:11;;;;;;;1.30;1.20;;;9.00;99.90;;;;;;5008660;28;20138;-77
2021/12/12 13:51:52;;;;;;;0.90;0.90;;;9.00;99.90;;;;;;4987065;28;20061;-77